Terminal Aerodrome Forecast
Issued by NWS

Home | Current Version | Previous Version | Text Only | Print | Product List | Glossary On
Versions: 1 2 3 4 5 6 7 8 9 10 11 12 13 14 15 16 17 18 19 20 21 22 23 24
000
FTUS43 KGLD 282350
TAFMCK
TAF
KMCK 282350Z 2900/2924 15008KT P6SM FEW250
     FM291100 13004KT P6SM BKN150 PROB30 2917/2918 4SM -TSRA
      OVC040CB
     FM291800 15008KT P6SM BKN130=

USA.gov is the U.S. government's official web portal to all federal, state and local government web resources and services.